sensor_id;sensor_type;location;lat;lon;timestamp;P1;durP1;ratioP1;P2;durP2;ratioP2
78197;SDS011;67472;51.554;7.812;2023-07-31T00:00:54;8.27;;;3.60;;
78197;SDS011;67472;51.554;7.812;2023-07-31T00:03:40;4.38;;;3.30;;
78197;SDS011;67472;51.554;7.812;2023-07-31T00:06:26;5.65;;;3.72;;
78197;SDS011;67472;51.554;7.812;2023-07-31T00:09:12;6.97;;;3.25;;
78197;SDS011;67472;51.554;7.812;2023-07-31T00:12:00;5.65;;;3.10;;
78197;SDS011;67472;51.554;7.812;2023-07-31T00:14:46;5.15;;;2.85;;
78197;SDS011;67472;51.554;7.812;2023-07-31T00:17:32;4.68;;;2.78;;
78197;SDS011;67472;51.554;7.812;2023-07-31T00:20:19;4.18;;;2.85;;
78197;SDS011;67472;51.554;7.812;2023-07-31T00:23:05;4.82;;;2.70;;
78197;SDS011;67472;51.554;7.812;2023-07-31T00:25:51;6.53;;;2.78;;
78197;SDS011;67472;51.554;7.812;2023-07-31T00:28:38;7.80;;;2.83;;
78197;SDS011;67472;51.554;7.812;2023-07-31T00:31:24;2.80;;;1.90;;
78197;SDS011;67472;51.554;7.812;2023-07-31T00:34:10;2.15;;;1.52;;
78197;SDS011;67472;51.554;7.812;2023-07-31T00:36:56;2.00;;;1.33;;
78197;SDS011;67472;51.554;7.812;2023-07-31T00:39:42;2.13;;;1.67;;
78197;SDS011;67472;51.554;7.812;2023-07-31T00:42:28;2.17;;;1.45;;
78197;SDS011;67472;51.554;7.812;2023-07-31T00:45:16;1.45;;;1.30;;
78197;SDS011;67472;51.554;7.812;2023-07-31T00:48:02;2.75;;;1.50;;
78197;SDS011;67472;51.554;7.812;2023-07-31T00:50:50;2.45;;;1.70;;
78197;SDS011;67472;51.554;7.812;2023-07-31T00:53:37;2.30;;;1.58;;
78197;SDS011;67472;51.554;7.812;2023-07-31T00:56:25;5.28;;;1.60;;
78197;SDS011;67472;51.554;7.812;2023-07-31T00:59:13;1.83;;;1.45;;
78197;SDS011;67472;51.554;7.812;2023-07-31T01:02:01;4.78;;;1.85;;
78197;SDS011;67472;51.554;7.812;2023-07-31T01:04:47;3.83;;;2.35;;
78197;SDS011;67472;51.554;7.812;2023-07-31T01:07:35;4.35;;;2.80;;
78197;SDS011;67472;51.554;7.812;2023-07-31T01:10:29;7.95;;;3.40;;
78197;SDS011;67472;51.554;7.812;2023-07-31T01:13:20;6.20;;;3.38;;
78197;SDS011;67472;51.554;7.812;2023-07-31T01:16:07;7.28;;;3.45;;
78197;SDS011;67472;51.554;7.812;2023-07-31T01:18:55;8.93;;;3.38;;
78197;SDS011;67472;51.554;7.812;2023-07-31T01:21:48;7.57;;;3.20;;
78197;SDS011;67472;51.554;7.812;2023-07-31T01:25:05;7.75;;;3.58;;
78197;SDS011;67472;51.554;7.812;2023-07-31T01:28:07;10.68;;;3.75;;
78197;SDS011;67472;51.554;7.812;2023-07-31T01:30:55;8.30;;;3.58;;
78197;SDS011;67472;51.554;7.812;2023-07-31T01:33:45;7.07;;;3.80;;
78197;SDS011;67472;51.554;7.812;2023-07-31T01:36:32;12.32;;;3.83;;
78197;SDS011;67472;51.554;7.812;2023-07-31T01:39:19;8.65;;;4.38;;
78197;SDS011;67472;51.554;7.812;2023-07-31T01:42:06;9.38;;;4.10;;
78197;SDS011;67472;51.554;7.812;2023-07-31T01:44:54;9.93;;;4.75;;
78197;SDS011;67472;51.554;7.812;2023-07-31T01:47:40;13.48;;;4.63;;
78197;SDS011;67472;51.554;7.812;2023-07-31T01:50:26;10.55;;;4.60;;
78197;SDS011;67472;51.554;7.812;2023-07-31T01:53:12;11.02;;;4.35;;
78197;SDS011;67472;51.554;7.812;2023-07-31T01:55:59;8.98;;;4.10;;
78197;SDS011;67472;51.554;7.812;2023-07-31T01:58:45;9.35;;;4.40;;
78197;SDS011;67472;51.554;7.812;2023-07-31T02:01:32;13.30;;;4.70;;
78197;SDS011;67472;51.554;7.812;2023-07-31T02:04:19;8.90;;;4.35;;
78197;SDS011;67472;51.554;7.812;2023-07-31T02:07:05;9.85;;;4.18;;
78197;SDS011;67472;51.554;7.812;2023-07-31T02:09:51;8.88;;;4.60;;
78197;SDS011;67472;51.554;7.812;2023-07-31T02:12:38;9.45;;;4.10;;
78197;SDS011;67472;51.554;7.812;2023-07-31T02:15:24;9.73;;;4.20;;
78197;SDS011;67472;51.554;7.812;2023-07-31T02:18:11;11.82;;;4.20;;
78197;SDS011;67472;51.554;7.812;2023-07-31T02:20:57;9.10;;;4.45;;
78197;SDS011;67472;51.554;7.812;2023-07-31T02:23:44;7.95;;;3.95;;
78197;SDS011;67472;51.554;7.812;2023-07-31T02:26:31;8.75;;;4.25;;
78197;SDS011;67472;51.554;7.812;2023-07-31T02:29:17;10.25;;;4.13;;
78197;SDS011;67472;51.554;7.812;2023-07-31T02:32:03;12.93;;;4.25;;
78197;SDS011;67472;51.554;7.812;2023-07-31T02:34:51;10.63;;;4.60;;
78197;SDS011;67472;51.554;7.812;2023-07-31T02:37:37;10.23;;;4.40;;
78197;SDS011;67472;51.554;7.812;2023-07-31T02:40:23;9.32;;;4.30;;
78197;SDS011;67472;51.554;7.812;2023-07-31T02:43:09;9.48;;;4.07;;
78197;SDS011;67472;51.554;7.812;2023-07-31T02:45:55;8.00;;;3.67;;
78197;SDS011;67472;51.554;7.812;2023-07-31T02:48:42;11.88;;;4.35;;
78197;SDS011;67472;51.554;7.812;2023-07-31T02:51:30;9.55;;;4.38;;
78197;SDS011;67472;51.554;7.812;2023-07-31T02:54:16;9.60;;;3.53;;
78197;SDS011;67472;51.554;7.812;2023-07-31T02:57:02;8.85;;;3.33;;
78197;SDS011;67472;51.554;7.812;2023-07-31T02:59:49;9.65;;;4.03;;
78197;SDS011;67472;51.554;7.812;2023-07-31T03:02:35;10.38;;;4.35;;
78197;SDS011;67472;51.554;7.812;2023-07-31T03:05:21;9.77;;;4.05;;
78197;SDS011;67472;51.554;7.812;2023-07-31T03:08:09;11.20;;;3.72;;
78197;SDS011;67472;51.554;7.812;2023-07-31T03:10:56;8.95;;;4.03;;
78197;SDS011;67472;51.554;7.812;2023-07-31T03:13:42;11.25;;;4.10;;
78197;SDS011;67472;51.554;7.812;2023-07-31T03:16:28;9.00;;;3.83;;
78197;SDS011;67472;51.554;7.812;2023-07-31T03:19:14;9.98;;;3.97;;
78197;SDS011;67472;51.554;7.812;2023-07-31T03:22:00;9.00;;;3.97;;
78197;SDS011;67472;51.554;7.812;2023-07-31T03:24:49;8.38;;;4.13;;
78197;SDS011;67472;51.554;7.812;2023-07-31T03:27:35;10.57;;;4.13;;
78197;SDS011;67472;51.554;7.812;2023-07-31T03:30:21;8.00;;;3.97;;
78197;SDS011;67472;51.554;7.812;2023-07-31T03:33:07;13.77;;;4.35;;
78197;SDS011;67472;51.554;7.812;2023-07-31T03:35:54;16.38;;;4.82;;
78197;SDS011;67472;51.554;7.812;2023-07-31T03:38:40;11.23;;;3.80;;
78197;SDS011;67472;51.554;7.812;2023-07-31T03:41:27;12.40;;;4.63;;
78197;SDS011;67472;51.554;7.812;2023-07-31T03:44:14;9.05;;;4.07;;
78197;SDS011;67472;51.554;7.812;2023-07-31T03:47:00;11.88;;;4.55;;
78197;SDS011;67472;51.554;7.812;2023-07-31T03:49:46;10.80;;;3.95;;
78197;SDS011;67472;51.554;7.812;2023-07-31T03:52:33;9.23;;;3.95;;
78197;SDS011;67472;51.554;7.812;2023-07-31T03:55:19;10.35;;;4.13;;
78197;SDS011;67472;51.554;7.812;2023-07-31T03:58:07;8.50;;;3.80;;
78197;SDS011;67472;51.554;7.812;2023-07-31T04:00:53;9.77;;;3.47;;
78197;SDS011;67472;51.554;7.812;2023-07-31T04:03:40;10.35;;;4.05;;
78197;SDS011;67472;51.554;7.812;2023-07-31T04:06:26;15.38;;;3.83;;
78197;SDS011;67472;51.554;7.812;2023-07-31T04:09:12;14.38;;;3.92;;
78197;SDS011;67472;51.554;7.812;2023-07-31T04:11:58;11.30;;;4.80;;
78197;SDS011;67472;51.554;7.812;2023-07-31T04:14:45;11.60;;;3.75;;
78197;SDS011;67472;51.554;7.812;2023-07-31T04:17:31;8.50;;;3.63;;
78197;SDS011;67472;51.554;7.812;2023-07-31T04:20:17;8.95;;;3.88;;
78197;SDS011;67472;51.554;7.812;2023-07-31T04:23:04;9.30;;;4.07;;
78197;SDS011;67472;51.554;7.812;2023-07-31T04:25:50;7.28;;;3.80;;
78197;SDS011;67472;51.554;7.812;2023-07-31T04:28:36;9.90;;;3.78;;
78197;SDS011;67472;51.554;7.812;2023-07-31T04:31:24;11.65;;;4.13;;
78197;SDS011;67472;51.554;7.812;2023-07-31T04:34:10;7.53;;;3.60;;
78197;SDS011;67472;51.554;7.812;2023-07-31T04:36:57;12.40;;;3.80;;
78197;SDS011;67472;51.554;7.812;2023-07-31T04:39:43;6.25;;;3.67;;
78197;SDS011;67472;51.554;7.812;2023-07-31T04:42:29;12.40;;;5.03;;
78197;SDS011;67472;51.554;7.812;2023-07-31T04:45:15;8.70;;;3.60;;
78197;SDS011;67472;51.554;7.812;2023-07-31T04:48:03;8.93;;;4.10;;
78197;SDS011;67472;51.554;7.812;2023-07-31T04:50:50;10.90;;;3.83;;
78197;SDS011;67472;51.554;7.812;2023-07-31T04:53:36;8.75;;;4.07;;
78197;SDS011;67472;51.554;7.812;2023-07-31T04:56:22;9.00;;;4.50;;
78197;SDS011;67472;51.554;7.812;2023-07-31T04:59:08;7.28;;;3.58;;
78197;SDS011;67472;51.554;7.812;2023-07-31T05:01:54;10.88;;;3.25;;
78197;SDS011;67472;51.554;7.812;2023-07-31T05:04:42;10.43;;;4.38;;
78197;SDS011;67472;51.554;7.812;2023-07-31T05:07:28;7.55;;;3.88;;
78197;SDS011;67472;51.554;7.812;2023-07-31T05:10:15;12.85;;;4.00;;
78197;SDS011;67472;51.554;7.812;2023-07-31T05:13:01;8.30;;;3.92;;
78197;SDS011;67472;51.554;7.812;2023-07-31T05:15:47;14.05;;;4.60;;
78197;SDS011;67472;51.554;7.812;2023-07-31T05:18:34;10.50;;;3.65;;
78197;SDS011;67472;51.554;7.812;2023-07-31T05:21:21;9.70;;;4.25;;
78197;SDS011;67472;51.554;7.812;2023-07-31T05:24:09;9.82;;;4.32;;
78197;SDS011;67472;51.554;7.812;2023-07-31T05:26:56;14.45;;;3.67;;
78197;SDS011;67472;51.554;7.812;2023-07-31T05:29:42;5.35;;;3.40;;
78197;SDS011;67472;51.554;7.812;2023-07-31T05:32:28;10.07;;;3.92;;
78197;SDS011;67472;51.554;7.812;2023-07-31T05:35:14;10.45;;;3.95;;
78197;SDS011;67472;51.554;7.812;2023-07-31T05:38:02;8.38;;;4.13;;
78197;SDS011;67472;51.554;7.812;2023-07-31T05:40:48;11.02;;;4.00;;
78197;SDS011;67472;51.554;7.812;2023-07-31T05:43:34;9.30;;;3.90;;
78197;SDS011;67472;51.554;7.812;2023-07-31T05:46:20;8.52;;;4.25;;
78197;SDS011;67472;51.554;7.812;2023-07-31T05:49:06;13.02;;;4.18;;
78197;SDS011;67472;51.554;7.812;2023-07-31T05:51:53;8.48;;;4.30;;
78197;SDS011;67472;51.554;7.812;2023-07-31T05:54:41;9.88;;;4.32;;
78197;SDS011;67472;51.554;7.812;2023-07-31T05:57:27;12.48;;;4.35;;
78197;SDS011;67472;51.554;7.812;2023-07-31T06:00:14;12.00;;;3.78;;
78197;SDS011;67472;51.554;7.812;2023-07-31T06:03:00;10.90;;;4.60;;
78197;SDS011;67472;51.554;7.812;2023-07-31T06:05:46;8.95;;;4.47;;
78197;SDS011;67472;51.554;7.812;2023-07-31T06:08:32;7.30;;;4.35;;
78197;SDS011;67472;51.554;7.812;2023-07-31T06:11:20;11.60;;;4.88;;
78197;SDS011;67472;51.554;7.812;2023-07-31T06:14:06;9.10;;;4.53;;
78197;SDS011;67472;51.554;7.812;2023-07-31T06:16:52;13.05;;;4.38;;
78197;SDS011;67472;51.554;7.812;2023-07-31T06:19:38;13.07;;;4.13;;
78197;SDS011;67472;51.554;7.812;2023-07-31T06:22:24;10.40;;;5.28;;
78197;SDS011;67472;51.554;7.812;2023-07-31T06:25:11;11.75;;;5.45;;
78197;SDS011;67472;51.554;7.812;2023-07-31T06:27:59;13.63;;;5.10;;
78197;SDS011;67472;51.554;7.812;2023-07-31T06:30:46;9.82;;;5.00;;
78197;SDS011;67472;51.554;7.812;2023-07-31T06:33:32;11.10;;;5.88;;
78197;SDS011;67472;51.554;7.812;2023-07-31T06:36:18;10.23;;;5.18;;
78197;SDS011;67472;51.554;7.812;2023-07-31T06:39:04;13.68;;;5.45;;
78197;SDS011;67472;51.554;7.812;2023-07-31T06:41:50;12.10;;;5.78;;
78197;SDS011;67472;51.554;7.812;2023-07-31T06:44:37;13.02;;;5.32;;
78197;SDS011;67472;51.554;7.812;2023-07-31T06:47:24;10.55;;;4.88;;
78197;SDS011;67472;51.554;7.812;2023-07-31T06:50:10;11.18;;;5.28;;
78197;SDS011;67472;51.554;7.812;2023-07-31T06:52:56;10.32;;;5.18;;
78197;SDS011;67472;51.554;7.812;2023-07-31T06:55:43;10.57;;;5.55;;
78197;SDS011;67472;51.554;7.812;2023-07-31T06:58:30;7.85;;;4.85;;
78197;SDS011;67472;51.554;7.812;2023-07-31T07:01:17;8.88;;;5.40;;
78197;SDS011;67472;51.554;7.812;2023-07-31T07:04:03;10.65;;;5.28;;
78197;SDS011;67472;51.554;7.812;2023-07-31T07:06:50;10.43;;;5.15;;
78197;SDS011;67472;51.554;7.812;2023-07-31T07:09:36;8.40;;;5.30;;
78197;SDS011;67472;51.554;7.812;2023-07-31T07:12:22;13.50;;;5.65;;
78197;SDS011;67472;51.554;7.812;2023-07-31T07:15:09;12.48;;;5.20;;
78197;SDS011;67472;51.554;7.812;2023-07-31T07:17:56;9.32;;;5.22;;
78197;SDS011;67472;51.554;7.812;2023-07-31T07:20:46;8.45;;;5.03;;
78197;SDS011;67472;51.554;7.812;2023-07-31T07:23:32;13.07;;;5.35;;
78197;SDS011;67472;51.554;7.812;2023-07-31T07:26:18;10.48;;;5.38;;
78197;SDS011;67472;51.554;7.812;2023-07-31T07:29:04;8.23;;;4.53;;
78197;SDS011;67472;51.554;7.812;2023-07-31T07:31:52;8.13;;;4.13;;
78197;SDS011;67472;51.554;7.812;2023-07-31T07:34:39;8.85;;;4.15;;
78197;SDS011;67472;51.554;7.812;2023-07-31T07:37:25;7.15;;;4.18;;
78197;SDS011;67472;51.554;7.812;2023-07-31T07:40:12;5.85;;;3.75;;
78197;SDS011;67472;51.554;7.812;2023-07-31T07:42:58;6.10;;;3.80;;
78197;SDS011;67472;51.554;7.812;2023-07-31T07:45:44;5.00;;;3.20;;
78197;SDS011;67472;51.554;7.812;2023-07-31T07:48:30;6.03;;;3.63;;
78197;SDS011;67472;51.554;7.812;2023-07-31T07:51:18;6.10;;;3.30;;
78197;SDS011;67472;51.554;7.812;2023-07-31T07:54:04;7.22;;;4.05;;
78197;SDS011;67472;51.554;7.812;2023-07-31T07:56:50;6.57;;;4.03;;
78197;SDS011;67472;51.554;7.812;2023-07-31T07:59:36;6.45;;;3.60;;
78197;SDS011;67472;51.554;7.812;2023-07-31T08:02:23;8.30;;;3.80;;
78197;SDS011;67472;51.554;7.812;2023-07-31T08:05:09;9.52;;;4.20;;
78197;SDS011;67472;51.554;7.812;2023-07-31T08:07:56;6.70;;;3.67;;
78197;SDS011;67472;51.554;7.812;2023-07-31T08:10:43;4.85;;;4.07;;
78197;SDS011;67472;51.554;7.812;2023-07-31T08:13:29;6.25;;;3.50;;
78197;SDS011;67472;51.554;7.812;2023-07-31T08:16:15;6.30;;;3.85;;
78197;SDS011;67472;51.554;7.812;2023-07-31T08:19:01;5.85;;;3.38;;
78197;SDS011;67472;51.554;7.812;2023-07-31T08:21:47;4.95;;;3.60;;
78197;SDS011;67472;51.554;7.812;2023-07-31T08:24:35;6.60;;;3.58;;
78197;SDS011;67472;51.554;7.812;2023-07-31T08:27:21;9.98;;;4.15;;
78197;SDS011;67472;51.554;7.812;2023-07-31T08:30:07;6.05;;;3.63;;
78197;SDS011;67472;51.554;7.812;2023-07-31T08:32:54;5.55;;;3.40;;
78197;SDS011;67472;51.554;7.812;2023-07-31T08:35:40;8.68;;;3.55;;
78197;SDS011;67472;51.554;7.812;2023-07-31T08:38:26;5.05;;;3.25;;
78197;SDS011;67472;51.554;7.812;2023-07-31T08:41:15;11.85;;;3.50;;
78197;SDS011;67472;51.554;7.812;2023-07-31T08:44:02;4.38;;;3.10;;
78197;SDS011;67472;51.554;7.812;2023-07-31T08:46:49;8.95;;;3.22;;
78197;SDS011;67472;51.554;7.812;2023-07-31T08:49:35;5.00;;;3.17;;
78197;SDS011;67472;51.554;7.812;2023-07-31T08:52:24;7.03;;;3.15;;
78197;SDS011;67472;51.554;7.812;2023-07-31T08:55:11;7.00;;;3.50;;
78197;SDS011;67472;51.554;7.812;2023-07-31T08:57:58;4.82;;;3.22;;
78197;SDS011;67472;51.554;7.812;2023-07-31T09:00:49;7.07;;;3.50;;
78197;SDS011;67472;51.554;7.812;2023-07-31T09:03:37;4.82;;;3.05;;
78197;SDS011;67472;51.554;7.812;2023-07-31T09:06:25;5.50;;;2.83;;
78197;SDS011;67472;51.554;7.812;2023-07-31T09:09:14;4.03;;;3.22;;
78197;SDS011;67472;51.554;7.812;2023-07-31T09:12:00;3.72;;;2.50;;
78197;SDS011;67472;51.554;7.812;2023-07-31T09:14:48;6.63;;;2.67;;
78197;SDS011;67472;51.554;7.812;2023-07-31T09:17:35;6.95;;;2.72;;
78197;SDS011;67472;51.554;7.812;2023-07-31T09:20:22;3.15;;;2.00;;
78197;SDS011;67472;51.554;7.812;2023-07-31T09:23:09;9.20;;;2.63;;
78197;SDS011;67472;51.554;7.812;2023-07-31T09:25:57;4.32;;;2.22;;
78197;SDS011;67472;51.554;7.812;2023-07-31T09:28:45;4.82;;;2.58;;
78197;SDS011;67472;51.554;7.812;2023-07-31T09:31:33;4.65;;;2.30;;
78197;SDS011;67472;51.554;7.812;2023-07-31T09:34:28;3.17;;;2.60;;
78197;SDS011;67472;51.554;7.812;2023-07-31T09:37:15;3.35;;;2.13;;
78197;SDS011;67472;51.554;7.812;2023-07-31T09:40:01;5.07;;;2.25;;
78197;SDS011;67472;51.554;7.812;2023-07-31T09:42:47;6.05;;;2.13;;
78197;SDS011;67472;51.554;7.812;2023-07-31T09:45:34;2.65;;;1.75;;
78197;SDS011;67472;51.554;7.812;2023-07-31T09:48:23;3.05;;;2.22;;
78197;SDS011;67472;51.554;7.812;2023-07-31T09:51:11;2.33;;;1.92;;
78197;SDS011;67472;51.554;7.812;2023-07-31T09:53:57;4.60;;;2.50;;
78197;SDS011;67472;51.554;7.812;2023-07-31T09:56:44;2.78;;;2.08;;
78197;SDS011;67472;51.554;7.812;2023-07-31T09:59:31;3.17;;;1.73;;
78197;SDS011;67472;51.554;7.812;2023-07-31T10:02:20;3.03;;;1.77;;
78197;SDS011;67472;51.554;7.812;2023-07-31T10:05:09;2.38;;;1.90;;
78197;SDS011;67472;51.554;7.812;2023-07-31T10:07:58;3.72;;;2.20;;
78197;SDS011;67472;51.554;7.812;2023-07-31T10:10:45;3.13;;;2.30;;
78197;SDS011;67472;51.554;7.812;2023-07-31T10:13:32;9.57;;;3.72;;
78197;SDS011;67472;51.554;7.812;2023-07-31T10:16:19;5.05;;;2.45;;
78197;SDS011;67472;51.554;7.812;2023-07-31T10:19:07;5.45;;;3.30;;
78197;SDS011;67472;51.554;7.812;2023-07-31T10:21:55;4.05;;;2.53;;
78197;SDS011;67472;51.554;7.812;2023-07-31T10:24:43;2.60;;;2.10;;
78197;SDS011;67472;51.554;7.812;2023-07-31T10:27:31;4.07;;;2.47;;
78197;SDS011;67472;51.554;7.812;2023-07-31T10:30:21;3.88;;;2.58;;
78197;SDS011;67472;51.554;7.812;2023-07-31T10:33:10;2.20;;;2.00;;
78197;SDS011;67472;51.554;7.812;2023-07-31T10:36:12;3.97;;;2.30;;
78197;SDS011;67472;51.554;7.812;2023-07-31T10:39:00;2.35;;;2.13;;
78197;SDS011;67472;51.554;7.812;2023-07-31T10:41:49;2.28;;;1.80;;
78197;SDS011;67472;51.554;7.812;2023-07-31T10:44:36;3.05;;;2.17;;
78197;SDS011;67472;51.554;7.812;2023-07-31T10:47:22;3.67;;;1.80;;
78197;SDS011;67472;51.554;7.812;2023-07-31T10:50:12;1.80;;;1.52;;
78197;SDS011;67472;51.554;7.812;2023-07-31T10:53:00;2.85;;;1.60;;
78197;SDS011;67472;51.554;7.812;2023-07-31T10:55:48;5.38;;;2.92;;
78197;SDS011;67472;51.554;7.812;2023-07-31T10:58:36;3.08;;;1.92;;
78197;SDS011;67472;51.554;7.812;2023-07-31T11:01:22;2.15;;;1.60;;
78197;SDS011;67472;51.554;7.812;2023-07-31T11:04:10;4.13;;;1.80;;
78197;SDS011;67472;51.554;7.812;2023-07-31T11:06:58;2.13;;;1.92;;
78197;SDS011;67472;51.554;7.812;2023-07-31T11:09:45;2.45;;;2.22;;
78197;SDS011;67472;51.554;7.812;2023-07-31T11:12:34;5.80;;;2.58;;
78197;SDS011;67472;51.554;7.812;2023-07-31T11:15:21;4.43;;;1.80;;
78197;SDS011;67472;51.554;7.812;2023-07-31T11:18:08;1.85;;;1.75;;
78197;SDS011;67472;51.554;7.812;2023-07-31T11:20:55;2.40;;;1.90;;
78197;SDS011;67472;51.554;7.812;2023-07-31T11:23:45;4.93;;;2.00;;
78197;SDS011;67472;51.554;7.812;2023-07-31T11:26:31;2.05;;;1.70;;
78197;SDS011;67472;51.554;7.812;2023-07-31T11:29:19;1.52;;;1.33;;
78197;SDS011;67472;51.554;7.812;2023-07-31T11:32:15;1.90;;;1.50;;
78197;SDS011;67472;51.554;7.812;2023-07-31T11:35:02;1.77;;;1.63;;
78197;SDS011;67472;51.554;7.812;2023-07-31T11:37:50;1.52;;;1.30;;
78197;SDS011;67472;51.554;7.812;2023-07-31T11:40:40;1.83;;;1.73;;
78197;SDS011;67472;51.554;7.812;2023-07-31T11:43:27;1.50;;;1.40;;
78197;SDS011;67472;51.554;7.812;2023-07-31T11:46:15;1.38;;;1.27;;
78197;SDS011;67472;51.554;7.812;2023-07-31T11:49:02;2.95;;;1.50;;
78197;SDS011;67472;51.554;7.812;2023-07-31T11:51:49;1.88;;;1.70;;
78197;SDS011;67472;51.554;7.812;2023-07-31T11:54:35;2.50;;;2.10;;
78197;SDS011;67472;51.554;7.812;2023-07-31T11:57:21;1.33;;;1.23;;
78197;SDS011;67472;51.554;7.812;2023-07-31T12:00:08;2.63;;;1.95;;
78197;SDS011;67472;51.554;7.812;2023-07-31T12:02:59;1.95;;;1.75;;
78197;SDS011;67472;51.554;7.812;2023-07-31T12:05:46;4.22;;;1.88;;
78197;SDS011;67472;51.554;7.812;2023-07-31T12:08:33;3.00;;;1.63;;
78197;SDS011;67472;51.554;7.812;2023-07-31T12:11:19;1.75;;;1.60;;
78197;SDS011;67472;51.554;7.812;2023-07-31T12:14:05;1.80;;;1.60;;
78197;SDS011;67472;51.554;7.812;2023-07-31T12:16:53;2.40;;;2.20;;
78197;SDS011;67472;51.554;7.812;2023-07-31T12:19:41;4.95;;;2.15;;
78197;SDS011;67472;51.554;7.812;2023-07-31T12:22:27;3.42;;;2.00;;
78197;SDS011;67472;51.554;7.812;2023-07-31T12:25:15;3.38;;;2.05;;
78197;SDS011;67472;51.554;7.812;2023-07-31T12:28:05;2.38;;;2.17;;
78197;SDS011;67472;51.554;7.812;2023-07-31T12:30:56;2.10;;;1.90;;
78197;SDS011;67472;51.554;7.812;2023-07-31T12:33:44;5.97;;;1.80;;
78197;SDS011;67472;51.554;7.812;2023-07-31T12:36:32;5.50;;;2.38;;
78197;SDS011;67472;51.554;7.812;2023-07-31T12:39:20;2.22;;;1.83;;
78197;SDS011;67472;51.554;7.812;2023-07-31T12:42:07;3.67;;;2.17;;
78197;SDS011;67472;51.554;7.812;2023-07-31T12:44:52;4.10;;;2.03;;
78197;SDS011;67472;51.554;7.812;2023-07-31T12:47:38;33.38;;;3.35;;
78197;SDS011;67472;51.554;7.812;2023-07-31T12:50:25;4.47;;;2.40;;
78197;SDS011;67472;51.554;7.812;2023-07-31T12:53:12;2.75;;;1.80;;
78197;SDS011;67472;51.554;7.812;2023-07-31T12:55:59;2.30;;;2.10;;
78197;SDS011;67472;51.554;7.812;2023-07-31T12:58:45;3.72;;;2.03;;
78197;SDS011;67472;51.554;7.812;2023-07-31T13:01:31;3.20;;;2.15;;
78197;SDS011;67472;51.554;7.812;2023-07-31T13:04:17;3.90;;;2.45;;
78197;SDS011;67472;51.554;7.812;2023-07-31T13:07:03;2.88;;;2.00;;
78197;SDS011;67472;51.554;7.812;2023-07-31T13:09:52;4.72;;;1.70;;
78197;SDS011;67472;51.554;7.812;2023-07-31T13:12:38;4.25;;;2.08;;
78197;SDS011;67472;51.554;7.812;2023-07-31T13:15:24;2.55;;;1.55;;
78197;SDS011;67472;51.554;7.812;2023-07-31T13:18:11;2.38;;;1.98;;
78197;SDS011;67472;51.554;7.812;2023-07-31T13:20:57;5.07;;;2.13;;
78197;SDS011;67472;51.554;7.812;2023-07-31T13:23:43;4.57;;;2.10;;
78197;SDS011;67472;51.554;7.812;2023-07-31T13:26:30;4.32;;;2.50;;
78197;SDS011;67472;51.554;7.812;2023-07-31T13:29:16;3.38;;;2.28;;
78197;SDS011;67472;51.554;7.812;2023-07-31T13:32:03;3.13;;;1.88;;
78197;SDS011;67472;51.554;7.812;2023-07-31T13:34:51;1.92;;;1.60;;
78197;SDS011;67472;51.554;7.812;2023-07-31T13:37:37;3.92;;;2.17;;
78197;SDS011;67472;51.554;7.812;2023-07-31T13:40:23;2.35;;;1.80;;
78197;SDS011;67472;51.554;7.812;2023-07-31T13:43:10;2.88;;;1.83;;
78197;SDS011;67472;51.554;7.812;2023-07-31T13:45:56;3.72;;;1.58;;
78197;SDS011;67472;51.554;7.812;2023-07-31T13:48:47;2.47;;;1.60;;
78197;SDS011;67472;51.554;7.812;2023-07-31T13:51:33;1.50;;;1.33;;
78197;SDS011;67472;51.554;7.812;2023-07-31T13:54:20;3.80;;;1.58;;
78197;SDS011;67472;51.554;7.812;2023-07-31T13:57:06;2.55;;;1.80;;
78197;SDS011;67472;51.554;7.812;2023-07-31T13:59:54;1.67;;;1.50;;
78197;SDS011;67472;51.554;7.812;2023-07-31T14:02:40;1.30;;;1.20;;
78197;SDS011;67472;51.554;7.812;2023-07-31T14:05:26;2.25;;;1.65;;
78197;SDS011;67472;51.554;7.812;2023-07-31T14:08:13;2.53;;;1.48;;
78197;SDS011;67472;51.554;7.812;2023-07-31T14:10:59;2.92;;;1.35;;
78197;SDS011;67472;51.554;7.812;2023-07-31T14:13:45;2.83;;;1.20;;
78197;SDS011;67472;51.554;7.812;2023-07-31T14:16:32;3.30;;;1.45;;
78197;SDS011;67472;51.554;7.812;2023-07-31T14:19:18;1.95;;;1.50;;
78197;SDS011;67472;51.554;7.812;2023-07-31T14:22:04;3.38;;;1.60;;
78197;SDS011;67472;51.554;7.812;2023-07-31T14:24:51;4.18;;;1.52;;
78197;SDS011;67472;51.554;7.812;2023-07-31T14:27:37;1.83;;;1.45;;
78197;SDS011;67472;51.554;7.812;2023-07-31T14:30:23;1.55;;;1.40;;
78197;SDS011;67472;51.554;7.812;2023-07-31T14:33:11;4.80;;;1.30;;
78197;SDS011;67472;51.554;7.812;2023-07-31T14:35:57;4.05;;;1.50;;
78197;SDS011;67472;51.554;7.812;2023-07-31T14:38:43;2.45;;;1.60;;
78197;SDS011;67472;51.554;7.812;2023-07-31T14:41:29;3.03;;;2.22;;
78197;SDS011;67472;51.554;7.812;2023-07-31T14:44:15;3.17;;;1.92;;
78197;SDS011;67472;51.554;7.812;2023-07-31T14:47:01;2.65;;;2.20;;
78197;SDS011;67472;51.554;7.812;2023-07-31T14:49:48;3.08;;;2.35;;
78197;SDS011;67472;51.554;7.812;2023-07-31T14:52:35;3.72;;;2.17;;
78197;SDS011;67472;51.554;7.812;2023-07-31T14:55:21;3.03;;;2.40;;
78197;SDS011;67472;51.554;7.812;2023-07-31T14:58:07;4.28;;;2.50;;
78197;SDS011;67472;51.554;7.812;2023-07-31T15:00:55;2.92;;;2.33;;
78197;SDS011;67472;51.554;7.812;2023-07-31T15:03:41;3.50;;;2.72;;
78197;SDS011;67472;51.554;7.812;2023-07-31T15:06:28;2.55;;;2.30;;
78197;SDS011;67472;51.554;7.812;2023-07-31T15:09:14;4.07;;;2.47;;
78197;SDS011;67472;51.554;7.812;2023-07-31T15:12:00;3.60;;;2.83;;
78197;SDS011;67472;51.554;7.812;2023-07-31T15:14:47;4.93;;;2.83;;
78197;SDS011;67472;51.554;7.812;2023-07-31T15:17:33;3.10;;;2.33;;
78197;SDS011;67472;51.554;7.812;2023-07-31T15:20:19;4.07;;;2.25;;
78197;SDS011;67472;51.554;7.812;2023-07-31T15:23:07;4.70;;;2.53;;
78197;SDS011;67472;51.554;7.812;2023-07-31T15:25:53;4.03;;;2.47;;
78197;SDS011;67472;51.554;7.812;2023-07-31T15:28:40;4.45;;;2.95;;
78197;SDS011;67472;51.554;7.812;2023-07-31T15:31:25;2.78;;;2.25;;
78197;SDS011;67472;51.554;7.812;2023-07-31T15:34:12;4.30;;;2.45;;
78197;SDS011;67472;51.554;7.812;2023-07-31T15:36:58;5.32;;;2.63;;
78197;SDS011;67472;51.554;7.812;2023-07-31T15:39:46;3.45;;;2.47;;
78197;SDS011;67472;51.554;7.812;2023-07-31T15:42:32;3.85;;;2.15;;
78197;SDS011;67472;51.554;7.812;2023-07-31T15:45:23;4.75;;;1.92;;
78197;SDS011;67472;51.554;7.812;2023-07-31T15:48:09;5.75;;;2.35;;
78197;SDS011;67472;51.554;7.812;2023-07-31T15:50:55;2.67;;;2.22;;
78197;SDS011;67472;51.554;7.812;2023-07-31T15:53:42;2.63;;;2.20;;
78197;SDS011;67472;51.554;7.812;2023-07-31T15:56:29;2.47;;;2.28;;
78197;SDS011;67472;51.554;7.812;2023-07-31T15:59:15;2.50;;;1.83;;
78197;SDS011;67472;51.554;7.812;2023-07-31T16:02:02;5.25;;;2.40;;
78197;SDS011;67472;51.554;7.812;2023-07-31T16:04:48;4.30;;;1.98;;
78197;SDS011;67472;51.554;7.812;2023-07-31T16:07:35;3.08;;;2.17;;
78197;SDS011;67472;51.554;7.812;2023-07-31T16:10:21;2.75;;;1.95;;
78197;SDS011;67472;51.554;7.812;2023-07-31T16:13:09;2.40;;;2.20;;
78197;SDS011;67472;51.554;7.812;2023-07-31T16:15:55;3.53;;;2.40;;
78197;SDS011;67472;51.554;7.812;2023-07-31T16:18:41;4.10;;;2.20;;
78197;SDS011;67472;51.554;7.812;2023-07-31T16:21:27;3.63;;;2.40;;
78197;SDS011;67472;51.554;7.812;2023-07-31T16:24:13;3.45;;;2.35;;
78197;SDS011;67472;51.554;7.812;2023-07-31T16:26:59;3.28;;;2.45;;
78197;SDS011;67472;51.554;7.812;2023-07-31T16:29:47;4.20;;;2.50;;
78197;SDS011;67472;51.554;7.812;2023-07-31T16:32:34;3.90;;;2.85;;
78197;SDS011;67472;51.554;7.812;2023-07-31T16:35:20;4.70;;;2.42;;
78197;SDS011;67472;51.554;7.812;2023-07-31T16:38:07;4.53;;;2.85;;
78197;SDS011;67472;51.554;7.812;2023-07-31T16:40:53;3.22;;;2.60;;
78197;SDS011;67472;51.554;7.812;2023-07-31T16:43:39;2.83;;;2.25;;